createdAt,value
2023-05-10T00:01:58.770Z,22.92
2023-05-10T00:05:02.833Z,22.84
2023-05-10T00:08:06.350Z,22.90
2023-05-10T00:11:10.446Z,22.77
2023-05-10T00:14:13.970Z,22.84
2023-05-10T00:17:17.487Z,22.94
2023-05-10T00:20:21.118Z,23.03
2023-05-10T00:23:25.211Z,22.67
2023-05-10T00:26:28.585Z,22.64
2023-05-10T00:29:33.612Z,22.72
2023-05-10T00:32:36.933Z,22.79
2023-05-10T00:35:40.967Z,22.85
2023-05-10T00:38:44.620Z,22.77
2023-05-10T00:41:47.864Z,22.65
2023-05-10T00:44:51.243Z,22.65
2023-05-10T00:47:58.085Z,22.80
2023-05-10T00:50:46.818Z,22.70
2023-05-10T00:53:50.838Z,22.54
2023-05-10T00:56:54.389Z,22.54
2023-05-10T00:59:57.923Z,22.48
2023-05-10T01:03:04.203Z,22.44
2023-05-10T01:06:08.017Z,22.51
2023-05-10T01:09:11.952Z,22.37
2023-05-10T01:12:16.583Z,22.29
2023-05-10T01:15:20.948Z,22.43
2023-05-10T01:18:24.301Z,22.56
2023-05-10T01:22:05.987Z,22.62
2023-05-10T01:25:38.421Z,22.33
2023-05-10T01:29:06.392Z,22.34
2023-05-10T01:32:47.846Z,22.16
2023-05-10T01:36:02.277Z,22.34
2023-05-10T01:39:44.041Z,22.34
2023-05-10T01:42:56.497Z,22.05
2023-05-10T01:46:18.846Z,22.04
2023-05-10T01:49:49.860Z,22.12
2023-05-10T01:52:56.924Z,22.30
2023-05-10T01:56:02.005Z,22.45
2023-05-10T01:59:10.953Z,22.42
2023-05-10T02:02:15.570Z,22.40
2023-05-10T02:05:25.402Z,22.44
2023-05-10T02:08:28.796Z,22.33
2023-05-10T02:11:33.125Z,22.34
2023-05-10T02:14:38.467Z,22.07
2023-05-10T02:17:43.014Z,22.32
2023-05-10T02:20:48.015Z,22.28
2023-05-10T02:23:52.610Z,22.26
2023-05-10T02:26:56.659Z,22.42
2023-05-10T02:30:01.450Z,22.32
2023-05-10T02:33:06.606Z,22.43
2023-05-10T02:36:11.230Z,22.36
2023-05-10T02:39:15.355Z,22.38
2023-05-10T02:42:20.540Z,22.46
2023-05-10T02:45:29.135Z,22.49
2023-05-10T02:48:32.690Z,22.53
2023-05-10T02:51:39.360Z,22.37
2023-05-10T02:54:48.176Z,22.51
2023-05-10T02:57:54.549Z,22.50
2023-05-10T03:00:58.004Z,22.44
2023-05-10T03:04:02.213Z,22.39
2023-05-10T03:07:05.957Z,22.44
2023-05-10T03:10:09.760Z,22.45
2023-05-10T03:13:31.803Z,22.32
2023-05-10T03:16:48.321Z,22.34
2023-05-10T03:20:02.372Z,22.35
2023-05-10T03:23:19.849Z,22.30
2023-05-10T03:26:27.369Z,22.29
2023-05-10T03:29:31.841Z,22.36
2023-05-10T03:32:35.472Z,22.34
2023-05-10T03:35:38.843Z,22.38
2023-05-10T03:38:42.369Z,22.43
2023-05-10T03:41:45.853Z,22.50
2023-05-10T03:44:49.167Z,22.46
2023-05-10T03:47:52.469Z,22.47
2023-05-10T03:50:55.948Z,22.40
2023-05-10T03:53:59.355Z,22.36
2023-05-10T03:57:03.931Z,22.36
2023-05-10T04:00:08.111Z,22.43
2023-05-10T04:03:12.250Z,22.38
2023-05-10T04:06:15.844Z,22.32
2023-05-10T04:09:19.324Z,22.34
2023-05-10T04:12:23.167Z,22.28
2023-05-10T04:15:26.425Z,22.24
2023-05-10T04:18:30.844Z,22.30
2023-05-10T04:21:35.302Z,22.20
2023-05-10T04:24:38.558Z,22.30
2023-05-10T04:27:42.170Z,22.38
2023-05-10T04:30:45.608Z,22.35
2023-05-10T04:33:50.044Z,22.33
2023-05-10T04:36:53.293Z,22.49
2023-05-10T04:39:56.932Z,22.51
2023-05-10T04:43:00.084Z,22.45
2023-05-10T04:46:03.765Z,22.46
2023-05-10T04:49:07.248Z,22.33
2023-05-10T04:52:10.473Z,22.22
2023-05-10T04:55:13.770Z,22.14
2023-05-10T04:58:17.307Z,22.24
2023-05-10T05:01:20.660Z,22.12
2023-05-10T05:04:23.999Z,22.08
2023-05-10T05:07:27.187Z,21.97
2023-05-10T05:10:31.253Z,21.99
2023-05-10T05:13:34.432Z,22.17
2023-05-10T05:16:37.915Z,22.25
2023-05-10T05:19:41.172Z,22.22
2023-05-10T05:22:44.791Z,22.29
2023-05-10T05:25:48.317Z,22.28
2023-05-10T05:28:51.600Z,22.32
2023-05-10T05:31:55.633Z,22.29
2023-05-10T05:34:59.109Z,22.29
2023-05-10T05:38:02.586Z,22.33
2023-05-10T05:41:08.098Z,22.30
2023-05-10T05:44:11.264Z,22.36
2023-05-10T05:47:14.722Z,22.38
2023-05-10T05:50:20.357Z,22.45
2023-05-10T05:53:24.004Z,22.39
2023-05-10T05:56:27.942Z,22.39
2023-05-10T05:59:31.232Z,22.38
2023-05-10T06:02:34.817Z,22.20
2023-05-10T06:05:38.140Z,22.25
2023-05-10T06:08:41.291Z,22.23
2023-05-10T06:11:46.873Z,22.28
2023-05-10T06:14:50.089Z,22.35
2023-05-10T06:17:53.412Z,22.39
2023-05-10T06:20:56.700Z,22.20
2023-05-10T06:24:00.037Z,22.12
2023-05-10T06:27:03.203Z,22.11
2023-05-10T06:30:12.958Z,22.17
2023-05-10T06:33:16.838Z,22.09
2023-05-10T06:36:22.387Z,22.14
2023-05-10T06:39:25.954Z,22.05
2023-05-10T06:42:29.347Z,21.98
2023-05-10T06:45:32.515Z,22.09
2023-05-10T06:48:35.762Z,22.15
2023-05-10T06:51:39.306Z,22.18
2023-05-10T06:54:42.672Z,22.22
2023-05-10T06:57:45.902Z,22.23
2023-05-10T07:00:49.254Z,22.18
2023-05-10T07:03:52.594Z,21.97
2023-05-10T07:06:55.845Z,21.95
2023-05-10T07:09:59.468Z,22.01
2023-05-10T07:13:05.270Z,22.12
2023-05-10T07:16:08.899Z,21.99
2023-05-10T07:19:12.257Z,22.06
2023-05-10T07:22:15.528Z,22.02
2023-05-10T07:25:18.927Z,22.06
2023-05-10T07:28:23.836Z,22.08
2023-05-10T07:31:31.119Z,22.05
2023-05-10T07:34:36.786Z,22.01
2023-05-10T07:37:40.075Z,21.75
2023-05-10T07:40:43.253Z,21.77
2023-05-10T07:43:46.504Z,21.82
2023-05-10T07:46:50.009Z,21.75
2023-05-10T07:49:54.196Z,21.71
2023-05-10T07:52:57.442Z,21.84
2023-05-10T07:56:00.852Z,21.82
2023-05-10T07:59:05.418Z,21.89
2023-05-10T08:02:08.960Z,21.90
2023-05-10T08:05:12.471Z,22.00
2023-05-10T08:08:15.885Z,21.80
2023-05-10T08:11:19.988Z,21.83
2023-05-10T08:14:23.330Z,21.74
2023-05-10T08:17:27.299Z,21.78
2023-05-10T08:20:30.653Z,21.77
2023-05-10T08:23:34.238Z,21.84
2023-05-10T08:26:37.437Z,21.87
2023-05-10T08:29:49.555Z,21.81
2023-05-10T08:32:53.730Z,21.72
2023-05-10T08:35:57.038Z,21.68
2023-05-10T08:39:00.859Z,21.82
2023-05-10T08:42:06.398Z,21.83
2023-05-10T08:45:10.176Z,21.85
2023-05-10T08:48:14.042Z,21.85
2023-05-10T08:51:20.760Z,21.83
2023-05-10T08:54:24.560Z,21.77
2023-05-10T08:57:28.038Z,21.77
2023-05-10T09:00:31.891Z,21.87
2023-05-10T09:03:37.562Z,21.76
2023-05-10T09:06:40.788Z,21.75
2023-05-10T09:09:45.152Z,21.94
2023-05-10T09:12:49.836Z,21.87
2023-05-10T09:15:53.506Z,21.86
2023-05-10T09:18:57.872Z,21.95
2023-05-10T09:22:01.364Z,21.83
2023-05-10T09:25:08.340Z,21.81
2023-05-10T09:28:11.994Z,21.88
2023-05-10T09:31:15.365Z,21.84
2023-05-10T09:34:30.299Z,21.80
2023-05-10T09:37:33.875Z,21.79
2023-05-10T09:40:38.499Z,21.73
2023-05-10T09:43:42.422Z,21.77
2023-05-10T09:46:51.056Z,21.78
2023-05-10T09:49:54.914Z,21.81
2023-05-10T09:52:58.895Z,21.78
2023-05-10T09:56:02.120Z,21.65
2023-05-10T09:59:05.567Z,21.58
2023-05-10T10:02:10.471Z,21.62
2023-05-10T10:05:13.843Z,21.71
2023-05-10T10:08:18.821Z,21.62
2023-05-10T10:11:22.362Z,21.59
2023-05-10T10:14:26.088Z,21.59
2023-05-10T10:17:29.517Z,21.59
2023-05-10T10:20:33.159Z,21.68
2023-05-10T10:23:39.587Z,21.70
2023-05-10T10:26:44.323Z,21.65
2023-05-10T10:30:02.465Z,21.61
2023-05-10T10:33:28.575Z,21.60
2023-05-10T10:36:32.425Z,21.63
2023-05-10T10:39:38.099Z,21.51
2023-05-10T10:42:48.730Z,21.56
2023-05-10T10:46:12.203Z,21.60
2023-05-10T10:49:17.029Z,21.45
2023-05-10T10:52:27.676Z,21.50
2023-05-10T10:55:50.679Z,21.48
2023-05-10T10:58:53.953Z,21.62
2023-05-10T11:01:57.175Z,21.59
2023-05-10T11:05:00.467Z,21.61
2023-05-10T11:08:34.961Z,21.58
2023-05-10T11:11:54.611Z,21.46
2023-05-10T11:15:03.309Z,21.48
2023-05-10T11:18:41.983Z,21.39
2023-05-10T11:21:47.892Z,21.38
2023-05-10T11:25:01.163Z,21.50
2023-05-10T11:28:04.729Z,21.55
2023-05-10T11:31:08.219Z,21.57
2023-05-10T11:34:11.718Z,21.57
2023-05-10T11:37:15.265Z,21.56
2023-05-10T11:40:18.995Z,21.38
2023-05-10T11:43:27.181Z,21.55
2023-05-10T11:46:30.592Z,21.61
2023-05-10T11:49:33.941Z,21.59
2023-05-10T11:52:40.451Z,21.26
2023-05-10T11:55:44.733Z,21.31
2023-05-10T11:58:53.341Z,21.29
2023-05-10T12:01:58.986Z,21.57
2023-05-10T12:05:02.468Z,21.41
2023-05-10T12:08:25.100Z,21.71
2023-05-10T12:11:30.551Z,21.44
2023-05-10T12:14:37.807Z,21.44
2023-05-10T12:17:43.446Z,21.49
2023-05-10T12:20:47.189Z,21.64
2023-05-10T12:23:55.536Z,21.36
2023-05-10T12:27:07.618Z,21.40
2023-05-10T12:30:11.420Z,21.42
2023-05-10T12:33:18.257Z,21.39
2023-05-10T12:36:24.698Z,21.40
2023-05-10T12:39:28.029Z,21.22
2023-05-10T12:42:31.153Z,21.25
2023-05-10T12:45:34.656Z,21.48
2023-05-10T12:48:41.232Z,21.54
2023-05-10T12:51:44.488Z,21.42
2023-05-10T12:54:48.112Z,21.40
2023-05-10T12:57:51.347Z,21.41
2023-05-10T13:00:54.703Z,21.50
2023-05-10T13:03:57.947Z,21.89
2023-05-10T13:07:01.159Z,21.57
2023-05-10T13:10:04.579Z,21.71
2023-05-10T13:13:07.876Z,21.63
2023-05-10T13:16:11.048Z,21.58
2023-05-10T13:19:18.583Z,21.60
2023-05-10T13:22:36.354Z,21.39
2023-05-10T13:25:45.943Z,21.37
2023-05-10T13:28:49.166Z,21.72
2023-05-10T13:31:52.729Z,21.98
2023-05-10T13:34:56.434Z,21.90
2023-05-10T13:37:59.643Z,21.83
2023-05-10T13:41:02.833Z,21.86
2023-05-10T13:44:06.052Z,21.73
2023-05-10T13:47:10.440Z,21.67
2023-05-10T13:50:13.962Z,21.74
2023-05-10T13:53:17.159Z,21.56
2023-05-10T13:56:20.391Z,21.60
2023-05-10T13:59:23.607Z,21.71
2023-05-10T14:02:27.213Z,21.80
2023-05-10T14:05:30.488Z,22.06
2023-05-10T14:08:33.641Z,22.38
2023-05-10T14:11:36.915Z,22.25
2023-05-10T14:14:40.120Z,22.59
2023-05-10T14:17:43.403Z,22.76
2023-05-10T14:20:46.714Z,22.60
2023-05-10T14:23:50.060Z,23.01
2023-05-10T14:26:53.473Z,22.67
2023-05-10T14:30:04.325Z,23.06
2023-05-10T14:33:07.556Z,23.17
2023-05-10T14:36:10.959Z,23.57
2023-05-10T14:39:14.379Z,23.46
2023-05-10T14:42:17.598Z,23.90
2023-05-10T14:45:20.751Z,24.05
2023-05-10T14:48:23.969Z,23.81
2023-05-10T14:51:28.811Z,23.52
2023-05-10T14:54:32.097Z,23.30
2023-05-10T14:57:35.598Z,23.45
2023-05-10T15:00:39.048Z,23.29
2023-05-10T15:03:42.830Z,23.21
2023-05-10T15:06:46.727Z,23.36
2023-05-10T15:09:50.028Z,23.61
2023-05-10T15:12:53.554Z,23.61
2023-05-10T15:15:56.764Z,23.64
2023-05-10T15:19:00.149Z,23.77
2023-05-10T15:22:03.910Z,23.36
2023-05-10T15:25:07.560Z,23.58
2023-05-10T15:28:10.657Z,23.89
2023-05-10T15:31:13.925Z,24.00
2023-05-10T15:34:17.760Z,24.03
2023-05-10T15:37:21.115Z,24.17
2023-05-10T15:40:24.828Z,23.86
2023-05-10T15:43:27.990Z,23.68
2023-05-10T15:46:31.878Z,23.91
2023-05-10T15:49:35.365Z,23.86
2023-05-10T15:52:39.043Z,23.64
2023-05-10T15:55:42.474Z,23.11
2023-05-10T15:58:45.806Z,23.26
2023-05-10T16:01:49.207Z,23.35
2023-05-10T16:04:52.690Z,23.22
2023-05-10T16:07:55.940Z,22.82
2023-05-10T16:11:01.607Z,22.93
2023-05-10T16:14:07.251Z,23.01
2023-05-10T16:17:10.750Z,22.55
2023-05-10T16:20:14.309Z,22.52
2023-05-10T16:23:19.935Z,22.56
2023-05-10T16:26:23.413Z,22.37
2023-05-10T16:29:28.596Z,22.54
2023-05-10T16:32:31.976Z,22.57
2023-05-10T16:35:37.690Z,22.59
2023-05-10T16:38:40.925Z,22.47
2023-05-10T16:41:44.422Z,22.66
2023-05-10T16:44:47.745Z,23.00
2023-05-10T16:47:51.240Z,23.12
2023-05-10T16:50:54.459Z,23.12
2023-05-10T16:53:57.706Z,23.09
2023-05-10T16:57:02.627Z,23.53
2023-05-10T17:00:06.324Z,23.58
2023-05-10T17:03:09.813Z,23.08
2023-05-10T17:06:13.267Z,23.59
2023-05-10T17:09:16.771Z,23.60
2023-05-10T17:12:19.969Z,23.60
2023-05-10T17:15:23.643Z,23.73
2023-05-10T17:18:27.850Z,24.06
2023-05-10T17:21:31.186Z,24.01
2023-05-10T17:24:34.727Z,23.78
2023-05-10T17:27:37.930Z,23.66
2023-05-10T17:30:41.219Z,23.78
2023-05-10T17:33:44.798Z,23.49
2023-05-10T17:36:48.094Z,23.51
2023-05-10T17:39:53.769Z,23.22
2023-05-10T17:42:57.261Z,23.12
2023-05-10T17:46:00.458Z,23.27
2023-05-10T17:49:03.629Z,23.36
2023-05-10T17:52:06.958Z,23.34
2023-05-10T17:55:10.750Z,23.48
2023-05-10T17:58:14.089Z,23.66
2023-05-10T18:01:17.590Z,23.93
2023-05-10T18:04:21.173Z,23.83
2023-05-10T18:07:24.680Z,23.57
2023-05-10T18:10:28.225Z,23.75
2023-05-10T18:13:31.748Z,23.81
2023-05-10T18:16:35.117Z,23.62
2023-05-10T18:19:40.750Z,23.74
2023-05-10T18:22:44.157Z,23.78
2023-05-10T18:25:47.418Z,23.94
2023-05-10T18:28:51.345Z,24.10
2023-05-10T18:31:54.652Z,23.97
2023-05-10T18:34:58.709Z,24.06
2023-05-10T18:38:02.511Z,24.28
2023-05-10T18:41:07.421Z,24.37
2023-05-10T18:44:13.304Z,24.73
2023-05-10T18:47:16.945Z,24.78
2023-05-10T18:50:20.382Z,24.99
2023-05-10T18:53:27.035Z,24.92
2023-05-10T18:56:29.952Z,25.11
2023-05-10T18:59:33.202Z,25.04
2023-05-10T19:02:40.076Z,24.85
2023-05-10T19:05:43.375Z,25.02
2023-05-10T19:08:46.625Z,24.83
2023-05-10T19:11:49.859Z,24.84
2023-05-10T19:14:53.072Z,25.01
2023-05-10T19:17:58.084Z,24.98
2023-05-10T19:21:03.375Z,24.63
2023-05-10T19:24:06.907Z,25.11
2023-05-10T19:27:10.495Z,25.15
2023-05-10T19:30:13.982Z,25.24
2023-05-10T19:33:22.638Z,25.38
2023-05-10T19:36:26.841Z,25.12
2023-05-10T19:39:30.878Z,24.87
2023-05-10T19:42:37.253Z,24.84
2023-05-10T19:45:40.794Z,24.96
2023-05-10T19:48:45.353Z,25.15
2023-05-10T19:51:48.777Z,25.36
2023-05-10T19:54:52.464Z,25.38
2023-05-10T19:57:55.876Z,25.37
2023-05-10T20:00:59.217Z,25.47
2023-05-10T20:04:04.846Z,25.32
2023-05-10T20:07:10.230Z,25.30
2023-05-10T20:10:13.757Z,25.20
2023-05-10T20:13:17.057Z,25.12
2023-05-10T20:16:20.522Z,25.14
2023-05-10T20:19:24.905Z,24.87
2023-05-10T20:22:28.392Z,25.10
2023-05-10T20:25:31.657Z,25.19
2023-05-10T20:28:34.936Z,25.36
2023-05-10T20:31:38.268Z,25.50
2023-05-10T20:34:41.514Z,25.10
2023-05-10T20:37:44.800Z,25.05
2023-05-10T20:40:48.126Z,25.12
2023-05-10T20:43:51.491Z,25.21
2023-05-10T20:46:54.748Z,25.11
2023-05-10T20:49:58.146Z,25.34
2023-05-10T20:53:01.811Z,25.11
2023-05-10T20:56:05.109Z,25.27
2023-05-10T20:59:08.603Z,25.24
2023-05-10T21:02:12.190Z,25.39
2023-05-10T21:05:15.504Z,25.66
2023-05-10T21:08:18.761Z,25.72
2023-05-10T21:11:22.159Z,25.61
2023-05-10T21:14:25.599Z,25.57
2023-05-10T21:17:29.086Z,25.87
2023-05-10T21:20:32.423Z,26.06
2023-05-10T21:23:38.517Z,25.56
2023-05-10T21:26:42.744Z,25.30
2023-05-10T21:29:46.168Z,25.57
2023-05-10T21:32:49.811Z,25.89
2023-05-10T21:35:53.796Z,25.85
2023-05-10T21:38:57.674Z,25.92
2023-05-10T21:42:00.966Z,25.90
2023-05-10T21:45:04.691Z,26.04
2023-05-10T21:48:08.249Z,26.13
2023-05-10T21:51:11.544Z,25.89
2023-05-10T21:54:14.900Z,26.00
2023-05-10T21:57:18.276Z,26.02
2023-05-10T22:00:21.555Z,25.95
2023-05-10T22:03:25.660Z,25.81
2023-05-10T22:06:29.192Z,25.93
2023-05-10T22:09:32.477Z,26.04
2023-05-10T22:12:35.733Z,25.84
2023-05-10T22:15:39.234Z,26.06
2023-05-10T22:18:43.866Z,26.07
2023-05-10T22:21:47.211Z,26.16
2023-05-10T22:24:50.421Z,25.99
2023-05-10T22:27:53.787Z,25.91
2023-05-10T22:30:57.894Z,25.95
2023-05-10T22:34:01.575Z,25.90
2023-05-10T22:37:05.099Z,25.88
2023-05-10T22:40:09.045Z,25.85
2023-05-10T22:43:12.902Z,25.99
2023-05-10T22:46:16.380Z,25.81
2023-05-10T22:49:21.910Z,25.89
2023-05-10T22:52:25.613Z,25.91
2023-05-10T22:55:29.122Z,25.72
2023-05-10T22:58:33.103Z,25.75
2023-05-10T23:01:36.753Z,25.44
2023-05-10T23:04:40.118Z,25.65
2023-05-10T23:07:43.350Z,25.70
2023-05-10T23:10:46.811Z,25.56
2023-05-10T23:13:50.049Z,25.69
2023-05-10T23:16:55.756Z,25.38
2023-05-10T23:19:59.430Z,25.37
2023-05-10T23:23:03.034Z,25.26
2023-05-10T23:26:06.346Z,25.23
2023-05-10T23:29:09.915Z,25.12
2023-05-10T23:32:13.528Z,24.91
2023-05-10T23:35:16.959Z,25.05
2023-05-10T23:38:23.345Z,24.94
2023-05-10T23:41:26.636Z,25.04
2023-05-10T23:44:30.210Z,24.93
2023-05-10T23:47:33.761Z,24.95
2023-05-10T23:50:37.164Z,25.13
2023-05-10T23:53:40.675Z,25.04
2023-05-10T23:56:44.085Z,24.89
2023-05-10T23:59:50.808Z,24.83
